createdAt,value
2024-04-18T00:00:17.636Z,5.09
2024-04-18T00:02:47.235Z,5.10
2024-04-18T00:05:31.103Z,4.95
2024-04-18T00:08:00.706Z,4.99
2024-04-18T00:10:30.090Z,5.08
2024-04-18T00:12:59.663Z,5.20
2024-04-18T00:15:26.888Z,4.82
2024-04-18T00:18:00.761Z,5.10
2024-04-18T00:20:28.524Z,5.18
2024-04-18T00:22:58.036Z,5.17
2024-04-18T00:25:32.944Z,4.86
2024-04-18T00:28:02.807Z,4.92
2024-04-18T00:30:45.277Z,4.77
2024-04-18T00:33:12.764Z,4.70
2024-04-18T00:35:42.841Z,4.39
2024-04-18T00:38:12.918Z,4.54
2024-04-18T00:40:49.068Z,4.70
2024-04-18T00:43:20.810Z,4.28
2024-04-18T00:45:59.283Z,4.38
2024-04-18T00:48:27.336Z,4.55
2024-04-18T00:50:59.870Z,4.45
2024-04-18T00:53:26.973Z,4.45
2024-04-18T00:55:59.606Z,4.75
2024-04-18T00:58:48.384Z,4.42
2024-04-18T01:01:26.864Z,4.34
2024-04-18T01:03:54.142Z,4.42
2024-04-18T01:06:42.196Z,4.54
2024-04-18T01:09:15.757Z,4.42
2024-04-18T01:12:08.481Z,4.29
2024-04-18T01:14:35.465Z,4.24
2024-04-18T01:17:05.946Z,4.16
2024-04-18T01:19:33.423Z,4.33
2024-04-18T01:22:05.492Z,4.30
2024-04-18T01:24:33.584Z,4.39
2024-04-18T01:27:05.909Z,4.28
2024-04-18T01:29:44.758Z,4.34
2024-04-18T01:32:36.453Z,4.30
2024-04-18T01:35:04.401Z,4.09
2024-04-18T01:37:49.777Z,4.15
2024-04-18T01:40:17.010Z,4.28
2024-04-18T01:42:49.175Z,4.06
2024-04-18T01:45:25.098Z,4.09
2024-04-18T01:48:14.830Z,4.18
2024-04-18T01:51:00.458Z,4.03
2024-04-18T01:53:37.556Z,4.01
2024-04-18T01:56:18.226Z,3.85
2024-04-18T01:58:50.919Z,3.83
2024-04-18T02:01:23.846Z,3.68
2024-04-18T02:03:53.561Z,3.95
2024-04-18T02:06:20.446Z,4.05
2024-04-18T02:08:50.309Z,4.10
2024-04-18T02:11:39.917Z,3.76
2024-04-18T02:14:17.101Z,4.11
2024-04-18T02:16:46.804Z,3.94
2024-04-18T02:19:22.865Z,4.00
2024-04-18T02:22:01.178Z,3.85
2024-04-18T02:24:38.625Z,3.78
2024-04-18T02:27:08.400Z,3.92
2024-04-18T02:29:38.045Z,3.84
2024-04-18T02:32:07.966Z,3.83
2024-04-18T02:34:34.955Z,3.64
2024-04-18T02:37:25.067Z,3.67
2024-04-18T02:39:52.141Z,3.82
2024-04-18T02:42:28.775Z,3.66
2024-04-18T02:45:01.524Z,3.71
2024-04-18T02:47:51.146Z,3.63
2024-04-18T02:50:36.658Z,3.63
2024-04-18T02:53:06.258Z,3.45
2024-04-18T02:55:33.063Z,3.46
2024-04-18T02:58:02.581Z,3.40
2024-04-18T03:00:32.212Z,3.64
2024-04-18T03:03:13.679Z,3.57
2024-04-18T03:06:02.866Z,3.41
2024-04-18T03:08:32.386Z,3.46
2024-04-18T03:11:15.934Z,3.39
2024-04-18T03:14:05.591Z,3.42
2024-04-18T03:16:35.144Z,3.38
2024-04-18T03:19:22.703Z,3.42
2024-04-18T03:21:52.350Z,3.61
2024-04-18T03:24:22.946Z,3.49
2024-04-18T03:26:51.745Z,3.44
2024-04-18T03:29:21.304Z,3.58
2024-04-18T03:31:59.959Z,3.66
2024-04-18T03:34:47.934Z,3.62
2024-04-18T03:37:17.424Z,3.49
2024-04-18T03:39:47.071Z,3.29
2024-04-18T03:42:16.703Z,3.17
2024-04-18T03:44:55.244Z,3.17
2024-04-18T03:47:27.567Z,3.15
2024-04-18T03:50:11.901Z,3.25
2024-04-18T03:52:39.243Z,3.07
2024-04-18T03:55:27.152Z,3.09
2024-04-18T03:57:53.988Z,3.21
2024-04-18T04:00:42.938Z,3.18
2024-04-18T04:03:12.912Z,3.16
2024-04-18T04:05:42.432Z,3.08
2024-04-18T04:08:10.545Z,3.09
2024-04-18T04:10:43.423Z,3.18
2024-04-18T04:13:10.256Z,3.35
2024-04-18T04:15:45.948Z,3.33
2024-04-18T04:18:35.715Z,3.25
2024-04-18T04:21:40.381Z,3.09
2024-04-18T04:24:07.988Z,3.14
2024-04-18T04:27:07.105Z,3.30
2024-04-18T04:29:34.034Z,3.27
2024-04-18T04:32:03.528Z,3.28
2024-04-18T04:34:33.107Z,3.25
2024-04-18T04:37:02.654Z,3.06
2024-04-18T04:39:29.614Z,3.02
2024-04-18T04:42:19.110Z,2.92
2024-04-18T04:44:46.102Z,3.02
2024-04-18T04:47:33.860Z,3.06
2024-04-18T04:50:24.954Z,3.36
2024-04-18T04:53:14.460Z,3.36
2024-04-18T04:55:59.454Z,3.31
2024-04-18T04:58:29.095Z,3.34
2024-04-18T05:00:57.100Z,3.40
2024-04-18T05:03:47.534Z,3.47
2024-04-18T05:06:26.749Z,3.49
2024-04-18T05:09:14.543Z,3.65
2024-04-18T05:11:41.344Z,3.82
2024-04-18T05:14:30.298Z,3.98
2024-04-18T05:16:57.309Z,3.96
2024-04-18T05:19:26.849Z,3.82
2024-04-18T05:21:56.412Z,3.74
2024-04-18T05:24:35.213Z,4.00
2024-04-18T05:27:02.548Z,4.07
2024-04-18T05:29:48.066Z,4.24
2024-04-18T05:32:17.613Z,4.37
2024-04-18T05:35:06.340Z,4.37
2024-04-18T05:37:38.328Z,4.79
2024-04-18T05:40:08.884Z,4.81
2024-04-18T05:42:38.429Z,4.76
2024-04-18T05:45:09.313Z,5.01
2024-04-18T05:47:59.110Z,5.05
2024-04-18T05:50:29.553Z,5.00
2024-04-18T05:53:01.680Z,4.96
2024-04-18T05:55:51.190Z,4.93
2024-04-18T05:58:20.610Z,5.41
2024-04-18T06:00:56.681Z,5.65
2024-04-18T06:03:27.234Z,6.12
2024-04-18T06:05:57.400Z,6.32
2024-04-18T06:08:29.534Z,6.26
2024-04-18T06:10:59.070Z,5.71
2024-04-18T06:13:28.694Z,6.28
2024-04-18T06:15:56.845Z,6.12
2024-04-18T06:18:29.133Z,5.86
2024-04-18T06:20:58.799Z,6.03
2024-04-18T06:23:30.923Z,6.31
2024-04-18T06:26:19.102Z,6.22
2024-04-18T06:28:48.763Z,6.91
2024-04-18T06:31:19.549Z,6.83
2024-04-18T06:33:49.311Z,6.68
2024-04-18T06:36:17.050Z,6.75
2024-04-18T06:38:49.160Z,6.80
2024-04-18T06:41:18.699Z,6.52
2024-04-18T06:43:48.208Z,6.86
2024-04-18T06:46:17.702Z,6.78
2024-04-18T06:48:47.275Z,6.53
2024-04-18T06:51:17.003Z,6.88
2024-04-18T06:53:49.108Z,6.98
2024-04-18T06:56:19.723Z,6.71
2024-04-18T06:58:50.686Z,6.76
2024-04-18T07:01:40.198Z,6.73
2024-04-18T07:04:09.867Z,6.91
2024-04-18T07:06:39.440Z,6.60
2024-04-18T07:09:11.392Z,6.83
2024-04-18T07:11:46.908Z,6.70
2024-04-18T07:14:17.027Z,6.80
2024-04-18T07:17:06.891Z,6.80
2024-04-18T07:19:36.398Z,7.27
2024-04-18T07:22:05.916Z,7.40
2024-04-18T07:25:07.819Z,7.54
2024-04-18T07:27:39.225Z,7.48
2024-04-18T07:30:11.124Z,7.51
2024-04-18T07:32:49.982Z,7.38
2024-04-18T07:35:19.573Z,7.53
2024-04-18T07:37:49.605Z,7.31
2024-04-18T07:40:22.530Z,7.75
2024-04-18T07:42:52.576Z,8.40
2024-04-18T07:45:22.191Z,8.26
2024-04-18T07:47:51.882Z,7.59
2024-04-18T07:50:21.392Z,8.12
2024-04-18T07:52:57.067Z,8.46
2024-04-18T07:55:36.115Z,8.68
2024-04-18T07:58:06.735Z,8.65
2024-04-18T08:00:38.080Z,8.53
2024-04-18T08:03:10.214Z,8.65
2024-04-18T08:05:42.225Z,8.13
2024-04-18T08:08:15.978Z,7.94
2024-04-18T08:11:08.410Z,8.74
2024-04-18T08:13:43.011Z,8.54
2024-04-18T08:16:15.671Z,8.52
2024-04-18T08:18:45.939Z,9.02
2024-04-18T08:21:15.500Z,9.32
2024-04-18T08:23:52.045Z,9.52
2024-04-18T08:26:24.160Z,9.53
2024-04-18T08:28:53.705Z,9.71
2024-04-18T08:31:28.822Z,9.14
2024-04-18T08:34:07.322Z,9.27
2024-04-18T08:36:41.259Z,9.63
2024-04-18T08:39:11.143Z,9.38
2024-04-18T08:41:44.367Z,9.88
2024-04-18T08:44:15.219Z,10.17
2024-04-18T08:46:47.976Z,10.09
2024-04-18T08:49:17.580Z,9.93
2024-04-18T08:51:47.546Z,10.08
2024-04-18T08:54:18.246Z,9.67
2024-04-18T08:56:54.587Z,10.10
2024-04-18T08:59:24.230Z,10.16
2024-04-18T09:01:53.902Z,10.42
2024-04-18T09:04:23.429Z,10.27
2024-04-18T09:06:52.997Z,10.32
2024-04-18T09:09:25.928Z,9.97
2024-04-18T09:11:57.378Z,11.37
2024-04-18T09:14:26.927Z,12.51
2024-04-18T09:16:56.419Z,12.00
2024-04-18T09:19:26.159Z,10.62
2024-04-18T09:21:55.726Z,10.84
2024-04-18T09:24:25.608Z,11.02
2024-04-18T09:26:59.310Z,10.92
2024-04-18T09:29:28.872Z,10.95
2024-04-18T09:32:01.045Z,10.57
2024-04-18T09:34:33.819Z,10.38
2024-04-18T09:37:06.462Z,10.26
2024-04-18T09:39:37.437Z,10.16
2024-04-18T09:42:16.157Z,10.58
2024-04-18T09:44:46.655Z,10.90
2024-04-18T09:47:16.905Z,10.05
2024-04-18T09:49:46.934Z,9.32
2024-04-18T09:52:17.323Z,9.74
2024-04-18T09:54:47.458Z,10.32
2024-04-18T09:57:19.726Z,10.76
2024-04-18T09:59:49.515Z,10.70
2024-04-18T10:02:22.227Z,11.04
2024-04-18T10:04:52.370Z,11.28
2024-04-18T10:07:22.574Z,11.04
2024-04-18T10:09:52.658Z,10.80
2024-04-18T10:12:33.571Z,11.61
2024-04-18T10:15:03.425Z,11.25
2024-04-18T10:17:35.187Z,10.74
2024-04-18T10:20:02.518Z,10.90
2024-04-18T10:22:45.321Z,11.41
2024-04-18T10:25:21.631Z,11.18
2024-04-18T10:27:54.294Z,10.74
2024-04-18T10:30:26.411Z,11.14
2024-04-18T10:32:56.733Z,11.49
2024-04-18T10:35:29.000Z,12.34
2024-04-18T10:37:59.328Z,12.34
2024-04-18T10:40:29.123Z,11.98
2024-04-18T10:43:17.625Z,12.11
2024-04-18T10:45:48.077Z,11.98
2024-04-18T10:48:21.789Z,11.98
2024-04-18T10:50:52.056Z,11.55
2024-04-18T10:53:22.010Z,12.82
2024-04-18T10:55:51.787Z,13.40
2024-04-18T10:58:24.118Z,13.20
2024-04-18T11:00:59.408Z,12.46
2024-04-18T11:03:29.201Z,12.80
2024-04-18T11:05:58.857Z,13.00
2024-04-18T11:08:31.991Z,12.92
2024-04-18T11:11:04.211Z,12.87
2024-04-18T11:13:36.616Z,12.96
2024-04-18T11:16:06.646Z,13.33
2024-04-18T11:18:36.466Z,12.16
2024-04-18T11:21:07.127Z,12.12
2024-04-18T11:23:44.280Z,12.32
2024-04-18T11:26:17.018Z,12.88
2024-04-18T11:28:50.807Z,12.48
2024-04-18T11:31:17.770Z,11.99
2024-04-18T11:33:48.094Z,11.44
2024-04-18T11:36:17.950Z,11.86
2024-04-18T11:38:47.485Z,13.11
2024-04-18T11:41:18.873Z,13.47
2024-04-18T11:43:51.042Z,13.35
2024-04-18T11:46:20.550Z,13.78
2024-04-18T11:48:50.176Z,13.62
2024-04-18T11:51:19.850Z,14.13
2024-04-18T11:53:49.386Z,14.08
2024-04-18T11:56:36.858Z,12.57
2024-04-18T11:59:28.858Z,12.46
2024-04-18T12:01:58.356Z,12.13
2024-04-18T12:04:28.062Z,11.87
2024-04-18T12:06:58.199Z,11.99
2024-04-18T12:09:31.776Z,12.27
2024-04-18T12:12:02.249Z,12.34
2024-04-18T12:14:50.028Z,12.47
2024-04-18T12:17:28.731Z,12.58
2024-04-18T12:20:18.134Z,12.97
2024-04-18T12:22:47.741Z,13.74
2024-04-18T12:25:19.066Z,13.48
2024-04-18T12:27:46.936Z,13.79
2024-04-18T12:30:37.354Z,14.00
2024-04-18T12:33:23.777Z,13.55
2024-04-18T12:35:53.535Z,13.36
2024-04-18T12:38:23.097Z,13.55
2024-04-18T12:41:04.721Z,13.40
2024-04-18T12:43:35.905Z,13.61
2024-04-18T12:46:28.392Z,14.56
2024-04-18T12:48:58.582Z,14.29
2024-04-18T12:51:28.359Z,14.61
2024-04-18T12:53:57.946Z,13.76
2024-04-18T12:56:49.849Z,13.31
2024-04-18T12:59:26.321Z,13.05
2024-04-18T13:01:58.505Z,13.20
2024-04-18T13:04:25.601Z,12.82
2024-04-18T13:06:55.161Z,12.56
2024-04-18T13:09:30.910Z,12.57
2024-04-18T13:12:04.242Z,12.71
2024-04-18T13:14:52.520Z,12.26
2024-04-18T13:17:24.875Z,12.46
2024-04-18T13:19:54.806Z,12.23
2024-04-18T13:22:24.310Z,12.98
2024-04-18T13:24:53.854Z,13.04
2024-04-18T13:27:31.003Z,12.56
2024-04-18T13:30:00.695Z,12.53
2024-04-18T13:32:41.607Z,12.77
2024-04-18T13:35:11.688Z,12.70
2024-04-18T13:37:41.242Z,12.56
2024-04-18T13:40:20.167Z,12.44
2024-04-18T13:43:00.637Z,12.76
2024-04-18T13:45:30.408Z,12.87
2024-04-18T13:48:03.306Z,12.93
2024-04-18T13:50:45.354Z,12.66
2024-04-18T13:53:16.668Z,12.17
2024-04-18T13:55:53.380Z,12.07
2024-04-18T13:58:24.704Z,11.94
2024-04-18T14:01:02.899Z,12.22
2024-04-18T14:03:35.493Z,12.11
2024-04-18T14:06:11.603Z,12.31
2024-04-18T14:08:41.581Z,12.37
2024-04-18T14:11:31.002Z,12.14
2024-04-18T14:14:11.247Z,11.85
2024-04-18T14:17:16.893Z,12.23
2024-04-18T14:20:07.193Z,12.24
2024-04-18T14:22:51.310Z,12.32
2024-04-18T14:25:20.784Z,12.34
2024-04-18T14:28:20.215Z,12.68
2024-04-18T14:31:17.647Z,12.53
2024-04-18T14:33:50.324Z,12.47
2024-04-18T14:36:22.552Z,12.30
2024-04-18T14:38:52.187Z,12.53
2024-04-18T14:41:21.761Z,12.68
2024-04-18T14:43:57.625Z,12.58
2024-04-18T14:46:29.128Z,12.35
2024-04-18T14:49:18.733Z,13.08
2024-04-18T14:51:59.942Z,12.64
2024-04-18T14:54:26.911Z,12.73
2024-04-18T14:56:56.463Z,12.88
2024-04-18T14:59:54.882Z,12.86
2024-04-18T15:02:24.434Z,12.70
2024-04-18T15:05:03.251Z,12.62
2024-04-18T15:07:32.878Z,12.91
2024-04-18T15:10:18.685Z,12.47
2024-04-18T15:13:00.464Z,12.70
2024-04-18T15:15:29.996Z,12.53
2024-04-18T15:17:59.591Z,12.17
2024-04-18T15:20:29.152Z,12.24
2024-04-18T15:23:13.248Z,12.76
2024-04-18T15:25:43.361Z,12.56
2024-04-18T15:28:12.869Z,12.83
2024-04-18T15:30:42.412Z,12.46
2024-04-18T15:33:21.056Z,12.48
2024-04-18T15:35:53.188Z,12.57
2024-04-18T15:38:25.359Z,12.22
2024-04-18T15:41:13.275Z,12.51
2024-04-18T15:43:42.785Z,12.57
2024-04-18T15:46:32.459Z,12.26
2024-04-18T15:49:09.684Z,12.30
2024-04-18T15:51:39.896Z,12.43
2024-04-18T15:54:12.259Z,12.86
2024-04-18T15:56:41.853Z,12.94
2024-04-18T15:59:31.356Z,12.88
2024-04-18T16:02:06.844Z,12.72
2024-04-18T16:04:46.034Z,12.48
2024-04-18T16:07:16.111Z,12.37
2024-04-18T16:09:58.161Z,12.18
2024-04-18T16:12:27.794Z,12.07
2024-04-18T16:15:04.632Z,12.21
2024-04-18T16:17:35.428Z,12.04
2024-04-18T16:20:14.270Z,11.85
2024-04-18T16:22:43.833Z,11.91
2024-04-18T16:25:39.404Z,11.41
2024-04-18T16:28:10.143Z,11.62
2024-04-18T16:31:00.474Z,11.82
2024-04-18T16:33:30.093Z,11.76
2024-04-18T16:35:59.730Z,11.76
2024-04-18T16:38:29.232Z,11.77
2024-04-18T16:41:01.369Z,11.46
2024-04-18T16:43:37.309Z,11.67
2024-04-18T16:46:09.067Z,11.47
2024-04-18T16:48:40.002Z,11.34
2024-04-18T16:51:09.730Z,11.05
2024-04-18T16:53:57.962Z,11.00
2024-04-18T16:56:39.436Z,11.59
2024-04-18T16:59:06.418Z,11.05
2024-04-18T17:01:35.955Z,10.85
2024-04-18T17:04:05.644Z,11.09
2024-04-18T17:06:41.870Z,10.97
2024-04-18T17:09:18.346Z,10.66
2024-04-18T17:11:51.923Z,10.64
2024-04-18T17:14:55.721Z,10.50
2024-04-18T17:17:25.300Z,10.65
2024-04-18T17:19:57.991Z,10.75
2024-04-18T17:22:28.068Z,10.63
2024-04-18T17:24:57.631Z,10.53
2024-04-18T17:27:29.824Z,10.38
2024-04-18T17:29:59.578Z,10.31
2024-04-18T17:32:29.307Z,10.47
2024-04-18T17:34:59.054Z,10.40
2024-04-18T17:37:43.690Z,10.26
2024-04-18T17:40:25.317Z,9.91
2024-04-18T17:43:03.305Z,10.18
2024-04-18T17:45:34.208Z,10.10
2024-04-18T17:48:16.506Z,9.99
2024-04-18T17:50:46.173Z,10.32
2024-04-18T17:53:15.667Z,9.87
2024-04-18T17:55:45.201Z,9.92
2024-04-18T17:58:17.358Z,10.00
2024-04-18T18:00:47.326Z,9.80
2024-04-18T18:03:17.100Z,10.01
2024-04-18T18:05:47.440Z,9.39
2024-04-18T18:08:32.443Z,9.67
2024-04-18T18:11:20.179Z,9.54
2024-04-18T18:13:53.813Z,9.65
2024-04-18T18:16:23.553Z,9.49
2024-04-18T18:18:52.953Z,9.42
2024-04-18T18:21:22.515Z,9.60
2024-04-18T18:23:52.055Z,9.63
2024-04-18T18:26:41.097Z,9.53
2024-04-18T18:29:10.618Z,9.70
2024-04-18T18:31:58.403Z,9.58
2024-04-18T18:34:27.911Z,9.30
2024-04-18T18:36:54.685Z,9.18
2024-04-18T18:39:24.660Z,9.11
2024-04-18T18:41:51.702Z,9.13
2024-04-18T18:44:24.523Z,9.26
2024-04-18T18:46:51.597Z,9.16
2024-04-18T18:49:21.222Z,9.11
2024-04-18T18:51:48.284Z,9.19
2024-04-18T18:54:17.888Z,9.35
2024-04-18T18:56:44.979Z,9.13
2024-04-18T18:59:35.338Z,9.26
2024-04-18T19:02:02.334Z,9.04
2024-04-18T19:04:31.922Z,8.98
2024-04-18T19:06:59.070Z,9.00
2024-04-18T19:09:28.782Z,9.09
2024-04-18T19:11:55.717Z,9.25
2024-04-18T19:14:26.128Z,9.31
2024-04-18T19:17:22.133Z,9.36
2024-04-18T19:19:52.831Z,9.37
2024-04-18T19:22:19.762Z,9.37
2024-04-18T19:24:49.318Z,9.24
2024-04-18T19:27:16.426Z,9.28
2024-04-18T19:29:47.855Z,9.17
2024-04-18T19:32:16.432Z,9.28
2024-04-18T19:34:48.717Z,9.17
2024-04-18T19:37:15.651Z,9.34
2024-04-18T19:39:45.264Z,9.51
2024-04-18T19:42:12.221Z,9.27
2024-04-18T19:44:41.785Z,9.45
2024-04-18T19:47:08.557Z,9.28
2024-04-18T19:49:38.449Z,9.44
2024-04-18T19:52:09.048Z,9.32
2024-04-18T19:54:38.927Z,9.36
2024-04-18T19:57:06.783Z,9.27
2024-04-18T19:59:36.627Z,9.18
2024-04-18T20:02:04.043Z,9.43
2024-04-18T20:04:33.712Z,9.15
2024-04-18T20:07:01.028Z,9.36
2024-04-18T20:09:33.642Z,9.36
2024-04-18T20:12:02.040Z,9.34
2024-04-18T20:14:31.703Z,9.13
2024-04-18T20:16:58.659Z,9.17
2024-04-18T20:19:29.453Z,9.17
2024-04-18T20:21:56.414Z,9.09
2024-04-18T20:24:27.912Z,9.10
2024-04-18T20:27:16.127Z,9.07
2024-04-18T20:29:48.989Z,9.05
2024-04-18T20:32:22.066Z,8.98
2024-04-18T20:34:51.860Z,8.84
2024-04-18T20:37:18.912Z,9.17
2024-04-18T20:39:48.585Z,9.27
2024-04-18T20:42:18.333Z,9.08
2024-04-18T20:45:05.250Z,9.21
2024-04-18T20:47:34.590Z,9.08
2024-04-18T20:50:08.743Z,8.84
2024-04-18T20:52:35.900Z,9.18
2024-04-18T20:55:05.450Z,9.26
2024-04-18T20:57:35.399Z,9.11
2024-04-18T21:00:05.008Z,9.26
2024-04-18T21:02:33.425Z,9.25
2024-04-18T21:05:03.855Z,9.00
2024-04-18T21:07:30.890Z,8.97
2024-04-18T21:10:00.455Z,8.96
2024-04-18T21:12:27.691Z,9.19
2024-04-18T21:14:59.898Z,9.11
2024-04-18T21:17:27.785Z,9.08
2024-04-18T21:19:57.366Z,8.92
2024-04-18T21:22:24.112Z,8.97
2024-04-18T21:24:53.627Z,8.98
2024-04-18T21:27:20.626Z,9.14
2024-04-18T21:29:50.152Z,8.97
2024-04-18T21:32:19.548Z,9.00
2024-04-18T21:34:49.101Z,9.20
2024-04-18T21:37:16.009Z,8.99
2024-04-18T21:39:45.552Z,9.16
2024-04-18T21:42:12.316Z,8.87
2024-04-18T21:44:41.819Z,9.19
2024-04-18T21:47:08.570Z,9.03
2024-04-18T21:49:40.671Z,8.98
2024-04-18T21:52:07.630Z,9.05
2024-04-18T21:54:37.166Z,9.15
2024-04-18T21:57:06.897Z,9.22
2024-04-18T21:59:36.786Z,8.85
2024-04-18T22:02:03.961Z,9.20
2024-04-18T22:04:33.514Z,9.12
2024-04-18T22:07:02.939Z,9.16
2024-04-18T22:09:32.535Z,9.25
2024-04-18T22:11:59.541Z,9.57
2024-04-18T22:14:29.045Z,9.58
2024-04-18T22:16:55.812Z,9.34
2024-04-18T22:19:25.518Z,9.27
2024-04-18T22:21:54.079Z,9.28
2024-04-18T22:24:26.247Z,9.20
2024-04-18T22:26:53.150Z,9.08
2024-04-18T22:29:22.657Z,9.18
2024-04-18T22:31:49.446Z,9.22
2024-04-18T22:34:27.558Z,9.37
2024-04-18T22:37:00.690Z,9.16
2024-04-18T22:39:30.543Z,9.21
2024-04-18T22:42:00.063Z,9.27
2024-04-18T22:44:26.793Z,9.13
2024-04-18T22:46:56.269Z,9.30
2024-04-18T22:49:23.064Z,8.75
2024-04-18T22:51:52.645Z,8.80
2024-04-18T22:54:19.587Z,8.79
2024-04-18T22:57:18.176Z,8.87
2024-04-18T22:59:47.049Z,8.81
2024-04-18T23:02:16.896Z,8.75
2024-04-18T23:04:44.006Z,8.87
2024-04-18T23:07:13.815Z,9.04
2024-04-18T23:09:40.750Z,9.10
2024-04-18T23:12:10.726Z,8.92
2024-04-18T23:14:40.269Z,8.97
2024-04-18T23:17:09.605Z,8.89
2024-04-18T23:19:36.497Z,8.85
2024-04-18T23:22:06.558Z,8.70
2024-04-18T23:24:39.411Z,8.75
2024-04-18T23:27:09.075Z,8.70
2024-04-18T23:29:36.036Z,8.92
2024-04-18T23:32:09.368Z,8.84
2024-04-18T23:34:36.248Z,8.61
2024-04-18T23:37:07.047Z,8.74
2024-04-18T23:39:34.029Z,8.60
2024-04-18T23:42:03.579Z,8.67
2024-04-18T23:44:30.419Z,8.76
2024-04-18T23:47:00.884Z,8.78
2024-04-18T23:49:33.325Z,8.74
2024-04-18T23:52:02.814Z,8.42
2024-04-18T23:54:29.672Z,8.43
2024-04-18T23:56:59.158Z,8.26
2024-04-18T23:59:25.897Z,8.37
